createdAt,value
2023-05-06T00:02:37.386Z,15.30
2023-05-06T00:05:18.951Z,15.02
2023-05-06T00:07:52.653Z,13.68
2023-05-06T00:10:22.570Z,12.40
2023-05-06T00:12:50.190Z,15.13
2023-05-06T00:15:31.556Z,13.15
2023-05-06T00:18:00.843Z,12.82
2023-05-06T00:20:39.315Z,15.95
2023-05-06T00:23:06.885Z,14.23
2023-05-06T00:25:44.984Z,13.38
2023-05-06T00:28:12.884Z,13.98
2023-05-06T00:30:49.315Z,14.45
2023-05-06T00:33:16.798Z,16.92
2023-05-06T00:35:44.427Z,17.85
2023-05-06T00:38:17.865Z,16.77
2023-05-06T00:40:45.595Z,15.88
2023-05-06T00:43:13.988Z,14.75
2023-05-06T00:45:46.614Z,16.67
2023-05-06T00:48:15.386Z,16.00
2023-05-06T00:50:43.524Z,14.30
2023-05-06T00:53:34.504Z,14.45
2023-05-06T00:56:10.990Z,13.52
2023-05-06T00:58:46.262Z,14.23
2023-05-06T01:01:19.589Z,15.25
2023-05-06T01:03:58.398Z,13.77
2023-05-06T01:06:26.108Z,17.77
2023-05-06T01:09:06.197Z,15.43
2023-05-06T01:11:33.835Z,14.48
2023-05-06T01:14:34.025Z,16.25
2023-05-06T01:17:06.226Z,14.02
2023-05-06T01:19:53.594Z,14.70
2023-05-06T01:22:23.076Z,15.75
2023-05-06T01:24:50.425Z,15.27
2023-05-06T01:27:25.973Z,15.07
2023-05-06T01:29:56.720Z,18.10
2023-05-06T01:32:42.223Z,15.43
2023-05-06T01:35:19.644Z,15.02
2023-05-06T01:38:09.150Z,14.07
2023-05-06T01:40:41.471Z,15.27
2023-05-06T01:43:15.937Z,13.73
2023-05-06T01:45:47.704Z,13.68
2023-05-06T01:48:18.716Z,13.98
2023-05-06T01:50:46.362Z,14.85
2023-05-06T01:53:13.941Z,14.00
2023-05-06T01:55:50.479Z,12.70
2023-05-06T01:58:18.184Z,12.40
2023-05-06T02:00:55.521Z,12.65
2023-05-06T02:03:25.925Z,14.10
2023-05-06T02:05:56.080Z,11.68
2023-05-06T02:08:31.017Z,12.10
2023-05-06T02:13:34.841Z,11.60
2023-05-06T02:16:03.691Z,10.57
2023-05-06T02:18:40.862Z,12.73
2023-05-06T02:21:09.045Z,12.23
2023-05-06T02:23:37.479Z,12.20
2023-05-06T02:26:13.744Z,13.13
2023-05-06T02:28:41.265Z,12.40
2023-05-06T02:31:08.975Z,11.32
2023-05-06T02:33:39.757Z,10.30
2023-05-06T02:38:41.665Z,11.52
2023-05-06T02:41:18.026Z,12.07
2023-05-06T02:43:48.646Z,13.18
2023-05-06T02:46:25.071Z,11.25
2023-05-06T02:48:55.339Z,10.82
2023-05-06T02:51:25.355Z,11.55
2023-05-06T02:53:52.876Z,11.30
2023-05-06T02:56:20.407Z,10.80
2023-05-06T02:58:55.152Z,11.82
2023-05-06T03:01:24.900Z,12.50
2023-05-06T03:03:53.539Z,12.63
2023-05-06T03:06:28.436Z,11.85
2023-05-06T03:08:56.105Z,11.98
2023-05-06T03:11:35.877Z,12.27
2023-05-06T03:14:05.999Z,13.18
2023-05-06T03:16:48.429Z,13.32
2023-05-06T03:19:17.451Z,12.18
2023-05-06T03:21:53.300Z,12.60
2023-05-06T03:24:21.829Z,12.07
2023-05-06T03:26:56.962Z,12.77
2023-05-06T03:29:24.780Z,12.23
2023-05-06T03:32:04.796Z,11.63
2023-05-06T03:34:44.685Z,11.75
2023-05-06T03:37:17.297Z,12.00
2023-05-06T03:39:57.564Z,14.45
2023-05-06T03:42:28.701Z,12.27
2023-05-06T03:45:01.809Z,13.30
2023-05-06T03:47:32.257Z,12.32
2023-05-06T03:50:20.363Z,12.93
2023-05-06T03:52:49.977Z,14.00
2023-05-06T03:55:17.584Z,12.48
2023-05-06T03:57:45.403Z,15.40
2023-05-06T04:00:15.748Z,13.60
2023-05-06T04:02:51.533Z,18.13
2023-05-06T04:05:33.842Z,19.50
2023-05-06T04:08:02.270Z,19.35
2023-05-06T04:10:42.942Z,19.05
2023-05-06T04:13:25.039Z,19.10
2023-05-06T04:15:53.490Z,15.60
2023-05-06T04:21:01.471Z,14.82
2023-05-06T04:23:34.971Z,14.98
2023-05-06T04:26:02.840Z,16.25
2023-05-06T04:28:43.063Z,16.40
2023-05-06T04:31:14.688Z,15.82
2023-05-06T04:33:55.019Z,15.93
2023-05-06T04:36:35.885Z,15.35
2023-05-06T04:39:19.317Z,18.80
2023-05-06T04:41:49.544Z,17.65
2023-05-06T04:44:26.375Z,19.63
2023-05-06T04:46:54.934Z,18.45
2023-05-06T04:49:22.695Z,19.55
2023-05-06T04:51:55.814Z,20.55
2023-05-06T04:54:28.908Z,21.58
2023-05-06T04:57:00.201Z,18.77
2023-05-06T04:59:29.300Z,26.63
2023-05-06T05:01:57.274Z,19.80
2023-05-06T05:04:27.342Z,21.85
2023-05-06T05:07:03.976Z,18.65
2023-05-06T05:09:32.682Z,23.65
2023-05-06T05:12:05.698Z,19.83
2023-05-06T05:14:36.602Z,24.45
2023-05-06T05:17:09.209Z,21.98
2023-05-06T05:19:41.195Z,20.38
2023-05-06T05:22:09.735Z,20.55
2023-05-06T05:24:46.304Z,21.17
2023-05-06T05:27:15.049Z,24.27
2023-05-06T05:30:11.593Z,23.65
2023-05-06T05:32:40.698Z,25.13
2023-05-06T05:35:27.902Z,22.83
2023-05-06T05:38:03.608Z,25.15
2023-05-06T05:40:31.626Z,24.98
2023-05-06T05:43:01.659Z,23.67
2023-05-06T05:45:34.988Z,24.27
2023-05-06T05:48:05.251Z,23.40
2023-05-06T05:50:35.155Z,22.10
2023-05-06T05:53:05.420Z,22.95
2023-05-06T05:55:35.435Z,20.98
2023-05-06T05:58:04.011Z,20.13
2023-05-06T06:00:35.170Z,19.65
2023-05-06T06:03:19.308Z,19.25
2023-05-06T06:05:49.353Z,17.73
2023-05-06T06:08:26.747Z,18.23
2023-05-06T06:11:02.272Z,16.15
2023-05-06T06:13:36.123Z,15.32
2023-05-06T06:16:24.472Z,17.55
2023-05-06T06:18:59.205Z,17.83
2023-05-06T06:21:29.403Z,17.77
2023-05-06T06:24:00.196Z,16.65
2023-05-06T06:26:27.907Z,16.10
2023-05-06T06:28:55.666Z,16.77
2023-05-06T06:31:44.173Z,16.27
2023-05-06T06:34:12.899Z,15.25
2023-05-06T06:36:45.338Z,14.90
2023-05-06T06:39:13.367Z,15.27
2023-05-06T06:41:41.110Z,14.50
2023-05-06T06:44:10.899Z,15.70
2023-05-06T06:46:41.482Z,16.70
2023-05-06T06:49:09.018Z,15.88
2023-05-06T06:51:37.561Z,14.18
2023-05-06T06:54:13.917Z,14.15
2023-05-06T06:56:44.952Z,14.43
2023-05-06T06:59:15.943Z,14.27
2023-05-06T07:01:44.627Z,14.30
2023-05-06T07:04:13.266Z,14.38
2023-05-06T07:06:44.495Z,14.23
2023-05-06T07:09:12.096Z,13.32
2023-05-06T07:11:39.904Z,13.98
2023-05-06T07:14:10.974Z,14.00
2023-05-06T07:16:40.518Z,13.80
2023-05-06T07:19:08.160Z,13.13
2023-05-06T07:21:35.780Z,14.13
2023-05-06T07:24:12.657Z,12.02
2023-05-06T07:26:40.688Z,12.55
2023-05-06T07:29:10.281Z,11.95
2023-05-06T07:31:45.856Z,11.82
2023-05-06T07:39:36.223Z,10.05
2023-05-06T07:42:03.938Z,10.52
2023-05-06T07:44:33.761Z,10.48
2023-05-06T07:47:03.444Z,10.30
2023-05-06T07:49:35.565Z,9.23
2023-05-06T07:52:08.541Z,9.15
2023-05-06T07:54:37.217Z,9.57
2023-05-06T07:57:06.686Z,9.02
2023-05-06T07:59:38.975Z,9.77
2023-05-06T08:02:06.636Z,10.20
2023-05-06T08:04:36.151Z,9.23
2023-05-06T08:07:32.510Z,9.13
2023-05-06T08:10:00.235Z,9.98
2023-05-06T08:12:29.307Z,10.63
2023-05-06T08:15:00.166Z,9.73
2023-05-06T08:17:27.875Z,10.00
2023-05-06T08:19:55.725Z,10.93
2023-05-06T08:22:34.959Z,10.05
2023-05-06T08:25:08.470Z,9.70
2023-05-06T08:27:37.234Z,9.50
2023-05-06T08:30:08.455Z,9.98
2023-05-06T08:32:36.120Z,9.30
2023-05-06T08:35:26.949Z,10.15
2023-05-06T08:37:59.357Z,8.95
2023-05-06T08:40:38.360Z,9.50
2023-05-06T08:43:06.213Z,9.73
2023-05-06T08:46:21.728Z,10.10
2023-05-06T08:48:46.224Z,9.77
2023-05-06T08:54:23.373Z,9.32
2023-05-06T08:57:03.901Z,9.15
2023-05-06T08:59:35.529Z,10.43
2023-05-06T09:02:03.716Z,9.52
2023-05-06T09:04:52.311Z,11.20
2023-05-06T09:07:27.886Z,10.30
2023-05-06T09:12:55.335Z,9.65
2023-05-06T09:15:49.961Z,12.00
2023-05-06T09:18:29.726Z,12.55
2023-05-06T09:21:00.837Z,10.90
2023-05-06T09:23:30.616Z,10.93
2023-05-06T09:29:09.315Z,11.75
2023-05-06T09:31:50.041Z,11.65
2023-05-06T09:34:18.255Z,10.52
2023-05-06T09:37:12.756Z,9.73
2023-05-06T09:39:44.403Z,10.23
2023-05-06T09:42:12.256Z,11.48
2023-05-06T09:44:47.578Z,12.73
2023-05-06T09:47:23.505Z,13.63
2023-05-06T09:50:09.670Z,9.55
2023-05-06T09:52:41.572Z,10.52
2023-05-06T09:55:09.898Z,12.15
2023-05-06T09:57:46.788Z,12.65
2023-05-06T10:00:14.711Z,12.55
2023-05-06T10:02:46.267Z,12.30
2023-05-06T10:05:21.776Z,14.23
2023-05-06T10:07:50.000Z,13.48
2023-05-06T10:10:28.110Z,12.18
2023-05-06T10:12:56.639Z,13.60
2023-05-06T10:15:41.223Z,12.70
2023-05-06T10:18:31.207Z,14.07
2023-05-06T10:21:01.546Z,14.25
2023-05-06T10:23:39.589Z,14.27
2023-05-06T10:26:11.770Z,14.15
2023-05-06T10:28:41.500Z,14.30
2023-05-06T10:31:13.121Z,15.07
2023-05-06T10:33:47.080Z,15.15
2023-05-06T10:36:20.430Z,14.32
2023-05-06T10:38:56.115Z,15.95
2023-05-06T10:41:28.565Z,15.05
2023-05-06T10:44:01.654Z,14.18
2023-05-06T10:46:58.940Z,15.10
2023-05-06T10:49:29.138Z,15.98
2023-05-06T10:52:40.883Z,14.93
2023-05-06T10:55:31.622Z,15.93
2023-05-06T10:58:29.429Z,15.52
2023-05-06T11:01:00.077Z,15.77
2023-05-06T11:03:33.786Z,14.80
2023-05-06T11:06:10.355Z,15.63
2023-05-06T11:08:48.617Z,16.52
2023-05-06T11:14:48.256Z,13.30
2023-05-06T11:18:01.270Z,14.80
2023-05-06T11:21:07.646Z,13.18
2023-05-06T11:23:54.272Z,14.23
2023-05-06T11:26:31.562Z,14.07
2023-05-06T11:29:37.680Z,14.23
2023-05-06T11:32:23.117Z,13.73
2023-05-06T11:34:58.390Z,13.32
2023-05-06T11:37:29.931Z,13.68
2023-05-06T11:39:58.898Z,15.23
2023-05-06T11:42:53.298Z,15.10
2023-05-06T11:45:20.982Z,14.27
2023-05-06T11:48:05.366Z,13.50
2023-05-06T11:50:39.196Z,13.68
2023-05-06T11:53:41.491Z,12.90
2023-05-06T11:56:35.978Z,13.88
2023-05-06T11:59:26.032Z,15.25
2023-05-06T12:01:59.107Z,14.15
2023-05-06T12:04:29.326Z,14.55
2023-05-06T12:06:57.188Z,13.40
2023-05-06T12:09:39.639Z,15.18
2023-05-06T12:12:09.972Z,13.10
2023-05-06T12:14:41.216Z,13.70
2023-05-06T12:17:19.594Z,13.50
2023-05-06T12:19:53.488Z,13.15
2023-05-06T12:22:53.785Z,13.90
2023-05-06T12:25:28.987Z,13.77
2023-05-06T12:28:01.699Z,13.57
2023-05-06T12:30:33.829Z,13.45
2023-05-06T12:33:04.970Z,13.93
2023-05-06T12:35:33.230Z,14.18
2023-05-06T12:38:13.974Z,14.00
2023-05-06T12:40:55.314Z,13.77
2023-05-06T12:43:31.987Z,14.80
2023-05-06T12:46:09.314Z,12.15
2023-05-06T12:48:47.961Z,12.63
2023-05-06T12:51:23.470Z,13.00
2023-05-06T12:53:56.609Z,12.85
2023-05-06T12:56:24.363Z,12.95
2023-05-06T12:59:01.852Z,13.68
2023-05-06T13:02:19.560Z,12.05
2023-05-06T13:05:09.693Z,12.05
2023-05-06T13:08:42.277Z,11.00
2023-05-06T13:10:27.713Z,8.90
2023-05-06T13:12:56.181Z,8.90
2023-05-06T13:15:26.489Z,9.02
2023-05-06T13:18:10.064Z,9.95
2023-05-06T13:20:42.796Z,10.10
2023-05-06T13:26:03.514Z,10.55
2023-05-06T13:28:43.551Z,10.07
2023-05-06T13:31:49.134Z,9.85
2023-05-06T13:34:14.635Z,9.43
2023-05-06T13:36:43.826Z,7.15
2023-05-06T13:39:11.422Z,7.47
2023-05-06T13:41:40.884Z,8.18
2023-05-06T13:44:08.627Z,7.65
2023-05-06T13:46:36.655Z,7.88
2023-05-06T13:49:04.896Z,7.60
2023-05-06T13:51:38.262Z,7.45
2023-05-06T13:54:09.716Z,7.20
2023-05-06T13:56:44.318Z,7.60
2023-05-06T13:59:14.916Z,7.60
2023-05-06T14:04:27.879Z,7.38
2023-05-06T14:06:56.212Z,7.78
2023-05-06T14:09:24.201Z,7.00
2023-05-06T14:11:51.956Z,7.55
2023-05-06T14:14:19.473Z,7.05
2023-05-06T14:16:46.982Z,7.15
2023-05-06T14:19:17.270Z,7.50
2023-05-06T14:21:44.826Z,6.90
2023-05-06T14:24:12.679Z,11.88
2023-05-06T14:26:40.970Z,4.80
2023-05-06T14:29:08.559Z,5.72
2023-05-06T14:31:46.278Z,7.43
2023-05-06T14:34:13.871Z,5.35
2023-05-06T14:36:41.311Z,5.40
2023-05-06T14:39:08.805Z,5.72
2023-05-06T14:41:38.615Z,4.90
2023-05-06T14:44:06.322Z,5.72
2023-05-06T14:46:34.978Z,5.38
2023-05-06T14:49:04.717Z,5.57
2023-05-06T14:51:37.285Z,4.88
2023-05-06T14:54:04.928Z,5.22
2023-05-06T14:56:32.614Z,4.93
2023-05-06T14:59:01.885Z,4.82
2023-05-06T15:01:33.611Z,5.80
2023-05-06T15:04:01.262Z,5.80
2023-05-06T15:06:28.754Z,5.53
2023-05-06T15:08:59.516Z,5.93
2023-05-06T15:11:29.286Z,5.93
2023-05-06T15:13:56.720Z,6.93
2023-05-06T15:16:26.300Z,6.68
2023-05-06T15:18:58.567Z,6.30
2023-05-06T15:21:26.038Z,6.30
2023-05-06T15:23:56.889Z,7.70
2023-05-06T15:26:44.698Z,7.65
2023-05-06T15:29:12.338Z,8.35
2023-05-06T15:31:41.139Z,10.52
2023-05-06T15:34:11.871Z,9.05
2023-05-06T15:36:39.828Z,8.13
2023-05-06T15:39:07.400Z,8.32
2023-05-06T15:41:35.715Z,8.80
2023-05-06T15:46:33.295Z,9.40
2023-05-06T15:51:31.742Z,9.02
2023-05-06T15:53:59.300Z,10.30
2023-05-06T15:56:27.299Z,10.88
2023-05-06T15:58:55.958Z,12.23
2023-05-06T16:01:44.940Z,9.20
2023-05-06T16:04:19.994Z,7.88
2023-05-06T16:06:50.156Z,14.38
2023-05-06T16:09:17.732Z,13.43
2023-05-06T16:11:45.287Z,7.47
2023-05-06T16:14:12.836Z,20.65
2023-05-06T16:19:39.799Z,9.40
2023-05-06T16:22:13.304Z,14.65
2023-05-06T16:24:41.014Z,13.27
2023-05-06T16:27:08.770Z,21.60
2023-05-06T16:29:38.599Z,27.33
2023-05-06T16:32:06.092Z,23.05
2023-05-06T16:34:33.516Z,15.05
2023-05-06T16:37:00.950Z,13.05
2023-05-06T16:39:30.151Z,14.75
2023-05-06T16:41:57.571Z,33.40
2023-05-06T16:44:25.148Z,17.02
2023-05-06T16:46:52.945Z,17.75
2023-05-06T16:49:21.218Z,16.40
2023-05-06T16:51:48.706Z,29.85
2023-05-06T16:54:16.211Z,13.60
2023-05-06T16:56:51.438Z,8.40
2023-05-06T16:59:21.865Z,7.90
2023-05-06T17:01:50.568Z,6.95
2023-05-06T17:04:18.376Z,7.47
2023-05-06T17:06:46.034Z,7.80
2023-05-06T17:09:13.488Z,8.57
2023-05-06T17:11:40.976Z,9.35
2023-05-06T17:14:08.934Z,9.35
2023-05-06T17:16:38.854Z,8.93
2023-05-06T17:19:06.805Z,8.80
2023-05-06T17:21:34.409Z,8.80
2023-05-06T17:24:02.320Z,7.97
2023-05-06T17:26:51.802Z,6.60
2023-05-06T17:29:30.504Z,5.95
2023-05-06T17:31:58.749Z,5.43
2023-05-06T17:34:26.352Z,4.05
2023-05-06T17:36:53.945Z,3.33
2023-05-06T17:39:21.945Z,3.63
2023-05-06T17:41:50.122Z,3.72
2023-05-06T17:44:18.441Z,3.28
2023-05-06T17:46:46.197Z,3.78
2023-05-06T17:49:13.741Z,3.38
2023-05-06T17:51:42.596Z,4.20
2023-05-06T17:54:10.133Z,4.43
2023-05-06T17:56:37.725Z,4.60
2023-05-06T17:59:05.700Z,4.43
2023-05-06T18:01:33.211Z,5.68
2023-05-06T18:04:01.048Z,5.22
2023-05-06T18:06:28.942Z,5.20
2023-05-06T18:08:56.447Z,5.70
2023-05-06T18:11:26.114Z,5.63
2023-05-06T18:13:53.653Z,5.82
2023-05-06T18:16:21.279Z,6.43
2023-05-06T18:18:48.886Z,7.57
2023-05-06T18:21:16.351Z,8.30
2023-05-06T18:23:44.230Z,8.43
2023-05-06T18:26:12.098Z,7.13
2023-05-06T18:28:41.256Z,7.93
2023-05-06T18:31:08.914Z,7.13
2023-05-06T18:33:36.469Z,7.20
2023-05-06T18:36:04.114Z,7.90
2023-05-06T18:38:33.565Z,8.05
2023-05-06T18:41:03.011Z,7.07
2023-05-06T18:43:33.031Z,7.97
2023-05-06T18:46:05.556Z,8.93
2023-05-06T18:48:34.825Z,8.07
2023-05-06T18:51:14.458Z,7.18
2023-05-06T18:53:45.033Z,7.22
2023-05-06T18:56:12.861Z,7.38
2023-05-06T18:58:41.122Z,6.93
2023-05-06T19:01:09.931Z,7.65
2023-05-06T19:03:40.882Z,7.20
2023-05-06T19:06:09.279Z,7.20
2023-05-06T19:08:37.432Z,7.38
2023-05-06T19:11:04.959Z,7.65
2023-05-06T19:13:32.542Z,8.77
2023-05-06T19:16:00.053Z,8.43
2023-05-06T19:18:27.652Z,8.90
2023-05-06T19:20:55.951Z,9.52
2023-05-06T19:23:23.436Z,9.50
2023-05-06T19:25:50.910Z,10.30
2023-05-06T19:28:18.363Z,9.90
2023-05-06T19:30:45.982Z,9.85
2023-05-06T19:33:13.536Z,11.35
2023-05-06T19:35:41.132Z,10.90
2023-05-06T19:38:09.682Z,9.90
2023-05-06T19:40:39.272Z,11.15
2023-05-06T19:43:07.131Z,10.57
2023-05-06T19:45:35.009Z,10.25
2023-05-06T19:48:04.238Z,11.25
2023-05-06T19:50:35.556Z,11.43
2023-05-06T19:53:05.577Z,10.68
2023-05-06T19:55:33.038Z,10.82
2023-05-06T19:58:00.597Z,10.15
2023-05-06T20:00:28.261Z,9.05
2023-05-06T20:02:57.372Z,9.40
2023-05-06T20:05:25.217Z,9.63
2023-05-06T20:07:52.801Z,9.10
2023-05-06T20:10:20.760Z,8.93
2023-05-06T20:12:48.262Z,8.20
2023-05-06T20:15:16.062Z,8.15
2023-05-06T20:17:43.716Z,8.00
2023-05-06T20:20:11.733Z,9.82
2023-05-06T20:22:39.960Z,9.02
2023-05-06T20:25:08.073Z,8.70
2023-05-06T20:27:36.120Z,8.73
2023-05-06T20:30:04.161Z,8.82
2023-05-06T20:32:31.901Z,10.43
2023-05-06T20:34:59.464Z,10.10
2023-05-06T20:37:27.557Z,10.02
2023-05-06T20:39:55.157Z,9.43
2023-05-06T20:42:22.712Z,10.93
2023-05-06T20:44:53.838Z,11.60
2023-05-06T20:47:21.322Z,12.45
2023-05-06T20:49:48.832Z,12.18
2023-05-06T20:52:16.310Z,13.23
2023-05-06T20:54:46.832Z,14.90
2023-05-06T20:57:15.308Z,13.30
2023-05-06T20:59:43.199Z,13.55
2023-05-06T21:02:11.139Z,13.63
2023-05-06T21:04:59.533Z,14.52
2023-05-06T21:07:27.021Z,15.45
2023-05-06T21:09:56.818Z,13.45
2023-05-06T21:12:24.317Z,14.75
2023-05-06T21:14:51.862Z,14.55
2023-05-06T21:17:19.535Z,13.68
2023-05-06T21:19:52.469Z,14.57
2023-05-06T21:22:23.744Z,14.75
2023-05-06T21:24:51.495Z,15.23
2023-05-06T21:27:19.162Z,15.73
2023-05-06T21:29:46.825Z,15.27
2023-05-06T21:32:14.374Z,14.93
2023-05-06T21:34:42.365Z,15.00
2023-05-06T21:37:09.972Z,15.43
2023-05-06T21:39:40.051Z,15.50
2023-05-06T21:42:07.573Z,16.02
2023-05-06T21:44:35.079Z,15.20
2023-05-06T21:47:02.603Z,15.77
2023-05-06T21:49:30.151Z,16.05
2023-05-06T21:51:57.661Z,15.48
2023-05-06T21:54:25.278Z,16.25
2023-05-06T21:56:53.056Z,16.83
2023-05-06T21:59:20.598Z,16.08
2023-05-06T22:01:48.338Z,16.83
2023-05-06T22:04:16.876Z,17.27
2023-05-06T22:06:44.560Z,17.15
2023-05-06T22:09:36.902Z,16.50
2023-05-06T22:12:15.526Z,17.55
2023-05-06T22:18:54.095Z,18.80
2023-05-06T22:21:33.489Z,17.83
2023-05-06T22:24:12.721Z,17.63
2023-05-06T22:26:40.771Z,18.50
2023-05-06T22:29:08.392Z,20.13
2023-05-06T22:31:36.160Z,19.77
2023-05-06T22:34:09.413Z,19.67
2023-05-06T22:36:37.054Z,20.05
2023-05-06T22:39:04.797Z,21.48
2023-05-06T22:41:43.903Z,20.60
2023-05-06T22:44:13.890Z,22.05
2023-05-06T22:46:47.860Z,20.98
2023-05-06T22:49:16.053Z,22.73
2023-05-06T22:51:48.237Z,23.20
2023-05-06T22:54:26.839Z,22.05
2023-05-06T22:57:05.577Z,22.40
2023-05-06T22:59:33.338Z,22.98
2023-05-06T23:02:12.620Z,23.52
2023-05-06T23:05:09.324Z,23.98
2023-05-06T23:07:56.573Z,24.52
2023-05-06T23:10:28.218Z,24.48
2023-05-06T23:13:23.402Z,24.55
2023-05-06T23:15:54.452Z,24.15
2023-05-06T23:19:26.646Z,25.15
2023-05-06T23:22:02.499Z,23.52
2023-05-06T23:24:34.137Z,26.23
2023-05-06T23:27:11.105Z,23.85
2023-05-06T23:30:03.666Z,24.42
2023-05-06T23:32:56.732Z,23.20
2023-05-06T23:35:36.537Z,24.98
2023-05-06T23:38:04.439Z,24.73
2023-05-06T23:40:43.255Z,24.02
2023-05-06T23:43:36.541Z,25.50
2023-05-06T23:51:41.811Z,26.30
2023-05-06T23:54:29.772Z,26.20
2023-05-06T23:57:31.519Z,26.05
